Coral Mer — V2QO6 — position and weather

sailwx.info

Track history (hours):
 
Tides and Currents Weather Stations Pressure Air Temp Water Temp Dewpoint Dewpoint Depression Visibility Wind Speed Wind Dir Waves Ship Positions

Coral Mer

Last reported at 2017-Dec-07 13:58 UTC. Time now 2017-Dec-11 17:26 UTC.
Position N 43°12' E 005°01'.

Length 88 m; draft 3.2 m.

Type: Cargo ship. MMSI: 305972000.

Date/timePositionNaut miles runAvg speedWind from/ knotsBaromVisibWave heightAir tempDewpointWater temp
2017-Dec-07 13:58N 43°12' E 005°01'5 8.5
2017-Dec-07 13:25N 43°16' E 004°60'3 8.5
2017-Dec-07 13:00N 43°20' E 004°59'4 7.9
2017-Dec-07 12:30N 43°23' E 004°56'4 8.1
2017-Dec-07 11:58N 43°23' E 004°50'1 2.5
2017-Dec-07 11:30N 43°23' E 004°49'0 0.1
2017-Dec-07 10:56N 43°23' E 004°48'0 0.0
2017-Dec-07 10:25N 43°23' E 004°48'0 0.0
2017-Dec-07 10:00N 43°23' E 004°48'0 0.0
2017-Dec-07 09:30N 43°23' E 004°48'3 6.8
2017-Dec-07 09:00N 43°25' E 004°45'  
2017-Dec-02 22:35N 43°23' E 004°48'0 0.0
2017-Dec-02 22:30N 43°23' E 004°48'0 0.2
2017-Dec-02 21:56N 43°23' E 004°48'6 6.8
2017-Dec-02 21:05N 43°23' E 004°57'1 8.5
2017-Dec-02 21:00N 43°23' E 004°57'88 7.2
2017-Dec-02 08:50N 43°19' E 006°58'3 9.3
2017-Dec-02 08:30N 43°21' E 007°01'5 9.6
2017-Dec-02 08:00N 43°24' E 007°06'5 9.6
2017-Dec-02 07:30N 43°27' E 007°11'5 9.8
2017-Dec-02 06:59N 43°31' E 007°16'5 9.4
2017-Dec-02 06:28N 43°34' E 007°21'58 9.4
2017-Dec-02 00:15N 43°55' E 008°37'2 8.9
2017-Dec-01 23:59N 43°56' E 008°40'4 8.9
2017-Dec-01 23:30N 43°57' E 008°45'5 9.4
2017-Dec-01 22:57N 43°59' E 008°52'4 9.2
2017-Dec-01 22:30N 43°59' E 008°58'5 9.1
2017-Dec-01 22:00N 43°60' E 009°04'5 9.2
2017-Dec-01 21:30N 43°60' E 009°11'5 9.2
2017-Dec-01 21:00N 43°60' E 009°17'5 9.0
2017-Dec-01 20:30N 44°00' E 009°23'4 8.9
2017-Dec-01 20:00N 44°00' E 009°29'4 9.0
2017-Dec-01 19:30N 44°00' E 009°36'5 9.1
2017-Dec-01 19:00N 44°00' E 009°42'4 9.1
2017-Dec-01 18:30N 44°00' E 009°48'3 6.9
2017-Dec-01 18:00N 44°03' E 009°52'4 7.6
2017-Dec-01 17:29N 44°06' E 009°50'0 0.1
2017-Dec-01 16:59N 44°06' E 009°50'0 0.0
2017-Dec-01 16:29N 44°06' E 009°50'0 0.0
2017-Dec-01 15:53N 44°06' E 009°50'0 0.0
2017-Dec-01 15:29N 44°06' E 009°50'0 0.0
2017-Dec-01 14:59N 44°06' E 009°50'0 0.0
2017-Dec-01 14:29N 44°06' E 009°50'0 0.0
2017-Dec-01 13:59N 44°06' E 009°50'0 0.0
2017-Dec-01 13:26N 44°06' E 009°50'0 0.0
2017-Dec-01 12:59N 44°06' E 009°50'0 0.0
2017-Dec-01 12:26N 44°06' E 009°50'0 0.0
2017-Dec-01 11:59N 44°06' E 009°50'0 0.0
2017-Dec-01 11:29N 44°06' E 009°50'0 0.0
2017-Dec-01 10:59N 44°06' E 009°50'0 0.0
2017-Dec-01 10:26N 44°06' E 009°50'0 0.0
2017-Dec-01 09:59N 44°06' E 009°50'0 0.0
2017-Dec-01 09:29N 44°06' E 009°50'0 0.0
2017-Dec-01 08:59N 44°06' E 009°50'0 0.0
2017-Dec-01 08:29N 44°06' E 009°50'0 0.0
2017-Dec-01 07:59N 44°06' E 009°50'0 0.0
2017-Dec-01 07:29N 44°06' E 009°50'0 0.0
2017-Dec-01 06:56N 44°06' E 009°50'0 0.0
2017-Dec-01 06:29N 44°06' E 009°50'0 0.0
2017-Dec-01 05:59N 44°06' E 009°50'0 0.0
2017-Dec-01 05:29N 44°06' E 009°50'0 0.0
2017-Dec-01 04:59N 44°06' E 009°50'0 0.0
2017-Dec-01 04:29N 44°06' E 009°50'0 0.0
2017-Dec-01 03:59N 44°06' E 009°50'0 0.0
2017-Dec-01 03:29N 44°06' E 009°50'0 0.0
2017-Dec-01 02:59N 44°06' E 009°50'0 0.0
2017-Dec-01 02:26N 44°06' E 009°50'0 0.0
2017-Dec-01 01:59N 44°06' E 009°50'0 0.0
2017-Dec-01 01:29N 44°06' E 009°50'0 0.0
2017-Dec-01 00:59N 44°06' E 009°50'0 0.0
2017-Dec-01 00:29N 44°06' E 009°50'0 0.0
2017-Nov-30 23:59N 44°06' E 009°50'0 0.0
2017-Nov-30 23:29N 44°06' E 009°50'0 0.0
2017-Nov-30 22:59N 44°06' E 009°50'0 0.0
2017-Nov-30 22:29N 44°06' E 009°50'0 0.0
2017-Nov-30 21:59N 44°06' E 009°50'0 0.0
2017-Nov-30 21:26N 44°06' E 009°50'0 0.0
2017-Nov-30 20:59N 44°06' E 009°50'0 0.0
2017-Nov-30 20:30N 44°06' E 009°50'3 5.1
2017-Nov-30 20:00N 44°04' E 009°51'4 8.3
2017-Nov-30 19:30N 44°01' E 009°55'4 7.2
2017-Nov-30 19:00N 43°58' E 009°55'4 8.7
2017-Nov-30 18:30N 43°57' E 009°49'4 8.9
2017-Nov-30 18:00N 43°56' E 009°43'5 9.0
2017-Nov-30 17:30N 43°55' E 009°37'5 9.2
2017-Nov-30 17:00N 43°54' E 009°31'4 8.9
2017-Nov-30 16:30N 43°53' E 009°25'4 8.8
2017-Nov-30 16:00N 43°52' E 009°19'4 8.6
2017-Nov-30 15:30N 43°51' E 009°13'4 8.2
2017-Nov-30 15:00N 43°50' E 009°07'4 8.1
2017-Nov-30 14:30N 43°49' E 009°02'4 8.2
2017-Nov-30 14:00N 43°48' E 008°57'4 8.7
2017-Nov-30 13:30N 43°47' E 008°51'4 8.6
2017-Nov-30 13:00N 43°46' E 008°45'62 8.2
2017-Nov-30 05:25N 43°27' E 007°23'9 8.4
2017-Nov-30 04:23N 43°22' E 007°13'3 8.0
2017-Nov-30 03:58N 43°20' E 007°10'4 8.2
2017-Nov-30 03:30N 43°18' E 007°05'4 7.9
2017-Nov-30 03:00N 43°16' E 007°01'90 7.5
2017-Nov-29 14:56N 43°22' E 004°57'6 7.7
2017-Nov-29 14:08N 43°23' E 004°49'0 1.6
2017-Nov-29 13:52N 43°23' E 004°49'0 0.2
2017-Nov-29 13:29N 43°23' E 004°49'0 0.3
2017-Nov-29 12:58N 43°23' E 004°48'0 0.0
2017-Nov-29 11:22N 43°23' E 004°48'1 3.5
2017-Nov-29 11:00N 43°24' E 004°47'5 9.0
2017-Nov-29 10:27N 43°28' E 004°45'14 9.1
2017-Nov-29 08:58N 43°41' E 004°38'  
Track history (hours):
 
Tides and Currents Weather Stations Pressure Air Temp Water Temp Dewpoint Dewpoint Depression Visibility Wind Speed Wind Dir Waves Ship Positions

Coral Mer

Last reported at 2017-Dec-07 13:58 UTC. Time now 2017-Dec-11 17:26 UTC.
Position N 43°12' E 005°01'.

Length 88 m; draft 3.2 m.

Type: Cargo ship. MMSI: 305972000.

Date/timePositionNaut miles runAvg speedWind from/ knotsBaromVisibWave heightAir tempDewpointWater temp
2017-Dec-07 13:58N 43°12' E 005°01'5 8.5
2017-Dec-07 13:25N 43°16' E 004°60'3 8.5
2017-Dec-07 13:00N 43°20' E 004°59'4 7.9
2017-Dec-07 12:30N 43°23' E 004°56'4 8.1
2017-Dec-07 11:58N 43°23' E 004°50'1 2.5
2017-Dec-07 11:30N 43°23' E 004°49'0 0.1
2017-Dec-07 10:56N 43°23' E 004°48'0 0.0
2017-Dec-07 10:25N 43°23' E 004°48'0 0.0
2017-Dec-07 10:00N 43°23' E 004°48'0 0.0
2017-Dec-07 09:30N 43°23' E 004°48'3 6.8
2017-Dec-07 09:00N 43°25' E 004°45'  
2017-Dec-02 22:35N 43°23' E 004°48'0 0.0
2017-Dec-02 22:30N 43°23' E 004°48'0 0.2
2017-Dec-02 21:56N 43°23' E 004°48'6 6.8
2017-Dec-02 21:05N 43°23' E 004°57'1 8.5
2017-Dec-02 21:00N 43°23' E 004°57'88 7.2
2017-Dec-02 08:50N 43°19' E 006°58'3 9.3
2017-Dec-02 08:30N 43°21' E 007°01'5 9.6
2017-Dec-02 08:00N 43°24' E 007°06'5 9.6
2017-Dec-02 07:30N 43°27' E 007°11'5 9.8
2017-Dec-02 06:59N 43°31' E 007°16'5 9.4
2017-Dec-02 06:28N 43°34' E 007°21'58 9.4
2017-Dec-02 00:15N 43°55' E 008°37'2 8.9
2017-Dec-01 23:59N 43°56' E 008°40'4 8.9
2017-Dec-01 23:30N 43°57' E 008°45'5 9.4
2017-Dec-01 22:57N 43°59' E 008°52'4 9.2
2017-Dec-01 22:30N 43°59' E 008°58'5 9.1
2017-Dec-01 22:00N 43°60' E 009°04'5 9.2
2017-Dec-01 21:30N 43°60' E 009°11'5 9.2
2017-Dec-01 21:00N 43°60' E 009°17'5 9.0
2017-Dec-01 20:30N 44°00' E 009°23'4 8.9
2017-Dec-01 20:00N 44°00' E 009°29'4 9.0
2017-Dec-01 19:30N 44°00' E 009°36'5 9.1
2017-Dec-01 19:00N 44°00' E 009°42'4 9.1
2017-Dec-01 18:30N 44°00' E 009°48'3 6.9
2017-Dec-01 18:00N 44°03' E 009°52'4 7.6
2017-Dec-01 17:29N 44°06' E 009°50'0 0.1
2017-Dec-01 16:59N 44°06' E 009°50'0 0.0
2017-Dec-01 16:29N 44°06' E 009°50'0 0.0
2017-Dec-01 15:53N 44°06' E 009°50'0 0.0
2017-Dec-01 15:29N 44°06' E 009°50'0 0.0
2017-Dec-01 14:59N 44°06' E 009°50'0 0.0
2017-Dec-01 14:29N 44°06' E 009°50'0 0.0
2017-Dec-01 13:59N 44°06' E 009°50'0 0.0
2017-Dec-01 13:26N 44°06' E 009°50'0 0.0
2017-Dec-01 12:59N 44°06' E 009°50'0 0.0
2017-Dec-01 12:26N 44°06' E 009°50'0 0.0
2017-Dec-01 11:59N 44°06' E 009°50'0 0.0
2017-Dec-01 11:29N 44°06' E 009°50'0 0.0
2017-Dec-01 10:59N 44°06' E 009°50'0 0.0
2017-Dec-01 10:26N 44°06' E 009°50'0 0.0
2017-Dec-01 09:59N 44°06' E 009°50'0 0.0
2017-Dec-01 09:29N 44°06' E 009°50'0 0.0
2017-Dec-01 08:59N 44°06' E 009°50'0 0.0
2017-Dec-01 08:29N 44°06' E 009°50'0 0.0
2017-Dec-01 07:59N 44°06' E 009°50'0 0.0
2017-Dec-01 07:29N 44°06' E 009°50'0 0.0
2017-Dec-01 06:56N 44°06' E 009°50'0 0.0
2017-Dec-01 06:29N 44°06' E 009°50'0 0.0
2017-Dec-01 05:59N 44°06' E 009°50'0 0.0
2017-Dec-01 05:29N 44°06' E 009°50'0 0.0
2017-Dec-01 04:59N 44°06' E 009°50'0 0.0
2017-Dec-01 04:29N 44°06' E 009°50'0 0.0
2017-Dec-01 03:59N 44°06' E 009°50'0 0.0
2017-Dec-01 03:29N 44°06' E 009°50'0 0.0
2017-Dec-01 02:59N 44°06' E 009°50'0 0.0
2017-Dec-01 02:26N 44°06' E 009°50'0 0.0
2017-Dec-01 01:59N 44°06' E 009°50'0 0.0
2017-Dec-01 01:29N 44°06' E 009°50'0 0.0
2017-Dec-01 00:59N 44°06' E 009°50'0 0.0
2017-Dec-01 00:29N 44°06' E 009°50'0 0.0
2017-Nov-30 23:59N 44°06' E 009°50'0 0.0
2017-Nov-30 23:29N 44°06' E 009°50'0 0.0
2017-Nov-30 22:59N 44°06' E 009°50'0 0.0
2017-Nov-30 22:29N 44°06' E 009°50'0 0.0
2017-Nov-30 21:59N 44°06' E 009°50'0 0.0
2017-Nov-30 21:26N 44°06' E 009°50'0 0.0
2017-Nov-30 20:59N 44°06' E 009°50'0 0.0
2017-Nov-30 20:30N 44°06' E 009°50'3 5.1
2017-Nov-30 20:00N 44°04' E 009°51'4 8.3
2017-Nov-30 19:30N 44°01' E 009°55'4 7.2
2017-Nov-30 19:00N 43°58' E 009°55'4 8.7
2017-Nov-30 18:30N 43°57' E 009°49'4 8.9
2017-Nov-30 18:00N 43°56' E 009°43'5 9.0
2017-Nov-30 17:30N 43°55' E 009°37'5 9.2
2017-Nov-30 17:00N 43°54' E 009°31'4 8.9
2017-Nov-30 16:30N 43°53' E 009°25'4 8.8
2017-Nov-30 16:00N 43°52' E 009°19'4 8.6
2017-Nov-30 15:30N 43°51' E 009°13'4 8.2
2017-Nov-30 15:00N 43°50' E 009°07'4 8.1
2017-Nov-30 14:30N 43°49' E 009°02'4 8.2
2017-Nov-30 14:00N 43°48' E 008°57'4 8.7
2017-Nov-30 13:30N 43°47' E 008°51'4 8.6
2017-Nov-30 13:00N 43°46' E 008°45'62 8.2
2017-Nov-30 05:25N 43°27' E 007°23'9 8.4
2017-Nov-30 04:23N 43°22' E 007°13'3 8.0
2017-Nov-30 03:58N 43°20' E 007°10'4 8.2
2017-Nov-30 03:30N 43°18' E 007°05'4 7.9
2017-Nov-30 03:00N 43°16' E 007°01'90 7.5
2017-Nov-29 14:56N 43°22' E 004°57'6 7.7
2017-Nov-29 14:08N 43°23' E 004°49'0 1.6
2017-Nov-29 13:52N 43°23' E 004°49'0 0.2
2017-Nov-29 13:29N 43°23' E 004°49'0 0.3
2017-Nov-29 12:58N 43°23' E 004°48'0 0.0
2017-Nov-29 11:22N 43°23' E 004°48'1 3.5
2017-Nov-29 11:00N 43°24' E 004°47'5 9.0
2017-Nov-29 10:27N 43°28' E 004°45'14 9.1
2017-Nov-29 08:58N 43°41' E 004°38'  

Dump ship's entire track history